Terminal Aerodrome Forecast
Issued by NWS Green Bay, WI

Home | Current Version | Previous Version | Text Only | Print | Product List | Glossary Off
Versions: 1 2 3 4 5 6 7 8 9 10 11 12 13 14 15 16

000
FTUS43 KGRB 292324
TAFGRB
TAF
KGRB 292324Z 3000/3024 19006KT P6SM SCT100
     FM300900 00000KT P6SM SCT040 SCT100
     FM301700 24006KT P6SM BKN040
     FM301900 24007KT P6SM BKN025 OVC040=

USA.gov is the U.S. government's official web portal to all federal, state and local government web resources and services.